createdAt,value
2018-12-21T00:00:01.799Z,96185.78
2018-12-21T00:02:31.399Z,96194.19
2018-12-21T00:05:00.971Z,96201.73
2018-12-21T00:07:30.702Z,96197.28
2018-12-21T00:10:00.667Z,96185.16
2018-12-21T00:12:30.260Z,96185.55
2018-12-21T00:15:00.074Z,96190.81
2018-12-21T00:17:34.462Z,96203.00
2018-12-21T00:19:59.653Z,96202.54
2018-12-21T00:22:29.315Z,96195.61
2018-12-21T00:24:58.782Z,96211.43
2018-12-21T00:27:28.414Z,96210.15
2018-12-21T00:29:58.004Z,96213.17
2018-12-21T00:32:32.641Z,96215.41
2018-12-21T00:35:07.470Z,96216.39
2018-12-21T00:37:42.233Z,96221.91
2018-12-21T00:40:16.903Z,96220.72
2018-12-21T00:42:51.691Z,96224.48
2018-12-21T00:45:24.514Z,96222.34
2018-12-21T00:47:54.467Z,96216.61
2018-12-21T00:50:23.877Z,96224.59
2018-12-21T00:52:53.399Z,96224.77
2018-12-21T01:12:45.393Z,96218.58
2018-12-21T01:15:15.132Z,96217.11
2018-12-21T01:17:44.713Z,96213.99
2018-12-21T01:20:14.562Z,96215.55
2018-12-21T01:22:44.163Z,96214.55
2018-12-21T01:25:13.811Z,96219.79
2018-12-21T01:27:44.247Z,96211.78
2018-12-21T01:30:13.743Z,96216.30
2018-12-21T01:32:43.387Z,96211.56
2018-12-21T01:35:13.168Z,96208.32
2018-12-21T01:37:42.592Z,96215.16
2018-12-21T01:40:12.240Z,96215.02
2018-12-21T01:42:42.160Z,96212.31
2018-12-21T01:45:11.843Z,96214.34
2018-12-21T01:47:41.533Z,96219.11
2018-12-21T01:50:11.385Z,96208.94
2018-12-21T01:52:40.929Z,96209.94
2018-12-21T01:55:10.599Z,96207.52
2018-12-21T01:57:40.591Z,96209.83
2018-12-21T02:00:10.469Z,96214.20
2018-12-21T02:02:40.397Z,96208.05
2018-12-21T02:05:09.943Z,96212.25
2018-12-21T02:07:39.744Z,96208.66
2018-12-21T02:10:09.272Z,96219.54
2018-12-21T02:12:38.640Z,96213.39
2018-12-21T02:15:08.466Z,96204.22
2018-12-21T02:17:38.106Z,96197.81
2018-12-21T02:20:08.084Z,96197.81
2018-12-21T02:22:37.775Z,96205.50
2018-12-21T02:25:07.468Z,96205.85
2018-12-21T02:27:37.032Z,96198.17
2018-12-21T02:30:07.900Z,96202.12
2018-12-21T02:32:37.949Z,96194.72
2018-12-21T02:35:07.473Z,96198.77
2018-12-21T02:54:59.711Z,96213.84
2018-12-21T03:14:51.991Z,96221.42
2018-12-21T03:34:43.836Z,96214.66
2018-12-21T03:57:03.715Z,96218.31
2018-12-21T03:59:33.359Z,96216.00
2018-12-21T04:02:03.140Z,96213.73
2018-12-21T04:04:32.971Z,96212.13
2018-12-21T04:07:02.718Z,96208.32
2018-12-21T04:09:32.412Z,96213.44
2018-12-21T04:12:02.152Z,96209.12
2018-12-21T04:14:31.749Z,96211.27
2018-12-21T04:17:01.371Z,96210.84
2018-12-21T04:19:30.945Z,96208.13
2018-12-21T04:22:00.664Z,96201.33
2018-12-21T04:24:30.586Z,96206.77
2018-12-21T04:27:00.296Z,96204.97
2018-12-21T04:29:29.902Z,96208.32
2018-12-21T04:31:59.745Z,96205.97
2018-12-21T04:34:29.314Z,96208.20
2018-12-21T04:36:58.877Z,96202.80
2018-12-21T04:39:28.536Z,96204.30
2018-12-21T04:41:58.337Z,96212.59
2018-12-21T04:44:28.287Z,96218.84
2018-12-21T04:46:57.823Z,96225.56
2018-12-21T04:49:27.426Z,96208.25
2018-12-21T04:51:57.096Z,96219.90
2018-12-21T04:54:26.804Z,96212.84
2018-12-21T04:56:56.662Z,96211.95
2018-12-21T04:59:27.768Z,96222.72
2018-12-21T05:01:57.411Z,96215.92
2018-12-21T05:04:26.878Z,96222.13
2018-12-21T05:06:56.587Z,96229.70
2018-12-21T05:09:26.296Z,96220.96
2018-12-21T05:11:55.868Z,96215.84
2018-12-21T05:14:25.317Z,96221.16
2018-12-21T05:16:55.349Z,96218.84
2018-12-21T05:19:24.713Z,96218.90
2018-12-21T05:21:54.339Z,96214.88
2018-12-21T05:24:23.917Z,96219.06
2018-12-21T05:26:53.397Z,96226.19
2018-12-21T05:29:24.253Z,96228.53
2018-12-21T05:31:54.147Z,96224.22
2018-12-21T05:34:23.424Z,96242.40
2018-12-21T05:36:53.997Z,96239.09
2018-12-21T05:39:23.468Z,96232.90
2018-12-21T05:41:54.068Z,96239.72
2018-12-21T05:44:23.604Z,96243.17
2018-12-21T05:46:53.179Z,96247.48
2018-12-21T05:49:22.594Z,96251.66
2018-12-21T05:51:52.548Z,96249.53
2018-12-21T05:54:21.928Z,96255.88
2018-12-21T05:56:51.657Z,96256.05
2018-12-21T05:59:21.451Z,96258.66
2018-12-21T06:01:51.140Z,96256.54
2018-12-21T06:04:20.546Z,96262.66
2018-12-21T06:06:50.388Z,96269.55
2018-12-21T06:09:19.956Z,96272.73
2018-12-21T06:11:49.669Z,96256.63
2018-12-21T06:14:19.507Z,96264.16
2018-12-21T06:16:49.106Z,96252.99
2018-12-21T06:19:18.604Z,96245.48
2018-12-21T06:21:48.524Z,96255.47
2018-12-21T06:24:18.408Z,96251.80
2018-12-21T06:26:47.943Z,96262.10
2018-12-21T06:29:17.776Z,96258.27
2018-12-21T06:31:47.111Z,96248.41
2018-12-21T06:34:16.900Z,96244.75
2018-12-21T06:36:46.545Z,96249.45
2018-12-21T06:39:16.038Z,96244.37
2018-12-21T06:41:45.928Z,96243.74
2018-12-21T06:44:15.664Z,96244.71
2018-12-21T06:46:45.115Z,96233.26
2018-12-21T06:49:14.845Z,96235.02
2018-12-21T06:51:44.536Z,96230.70
2018-12-21T06:54:14.135Z,96229.63
2018-12-21T06:56:44.002Z,96237.11
2018-12-21T06:59:13.555Z,96231.38
2018-12-21T07:01:43.150Z,96227.35
2018-12-21T07:04:13.217Z,96234.94
2018-12-21T07:06:42.949Z,96240.02
2018-12-21T07:09:12.611Z,96239.59
2018-12-21T07:11:42.159Z,96241.91
2018-12-21T07:14:11.768Z,96245.04
2018-12-21T07:16:41.519Z,96254.75
2018-12-21T07:19:11.043Z,96258.31
2018-12-21T07:21:40.694Z,96266.83
2018-12-21T07:24:10.266Z,96260.42
2018-12-21T07:26:39.770Z,96263.80
2018-12-21T07:29:09.316Z,96273.67
2018-12-21T07:31:41.526Z,96265.87
2018-12-21T07:34:11.246Z,96272.95
2018-12-21T07:36:41.133Z,96269.73
2018-12-21T07:39:10.760Z,96263.63
2018-12-21T07:41:40.258Z,96264.67
2018-12-21T07:44:10.155Z,96284.62
2018-12-21T07:46:39.807Z,96281.11
2018-12-21T07:49:09.194Z,96276.45
2018-12-21T07:51:38.812Z,96275.67
2018-12-21T07:54:08.324Z,96278.47
2018-12-21T07:56:37.807Z,96278.02
2018-12-21T07:59:07.596Z,96283.28
2018-12-21T08:01:37.283Z,96281.92
2018-12-21T08:04:06.965Z,96290.68
2018-12-21T08:06:36.650Z,96282.60
2018-12-21T08:09:07.592Z,96235.55
2018-12-21T08:11:37.079Z,96292.84
2018-12-21T08:14:07.077Z,96295.48
2018-12-21T08:16:36.631Z,96296.63
2018-12-21T08:19:06.035Z,96293.20
2018-12-21T08:21:35.789Z,96275.91
2018-12-21T08:24:05.251Z,96285.70
2018-12-21T08:26:34.854Z,96286.84
2018-12-21T08:29:04.595Z,96288.11
2018-12-21T08:31:34.375Z,96288.66
2018-12-21T08:34:05.304Z,96280.14
2018-12-21T08:36:35.036Z,96281.31
2018-12-21T08:39:05.179Z,96279.89
2018-12-21T08:41:34.925Z,96275.77
2018-12-21T08:44:04.608Z,96281.39
2018-12-21T08:46:34.185Z,96283.98
2018-12-21T08:49:03.957Z,96283.30
2018-12-21T08:51:33.313Z,96276.08
2018-12-21T08:54:03.012Z,96272.00
2018-12-21T08:56:32.857Z,96275.85
2018-12-21T08:59:02.527Z,96262.16
2018-12-21T09:01:31.977Z,96263.23
2018-12-21T09:04:01.756Z,96258.64
2018-12-21T09:06:31.355Z,96257.70
2018-12-21T09:09:01.064Z,96257.03
2018-12-21T09:11:30.927Z,96261.65
2018-12-21T09:14:00.375Z,96260.49
2018-12-21T09:16:30.506Z,96262.31
2018-12-21T09:19:00.244Z,96266.94
2018-12-21T09:21:30.033Z,96252.45
2018-12-21T09:24:01.227Z,96255.32
2018-12-21T09:26:29.374Z,96251.45
2018-12-21T09:28:58.850Z,96264.11
2018-12-21T09:31:28.355Z,96257.48
2018-12-21T09:33:58.236Z,96248.34
2018-12-21T09:36:27.866Z,96240.41
2018-12-21T09:38:57.450Z,96229.27
2018-12-21T09:41:27.491Z,96218.07
2018-12-21T09:43:56.888Z,96216.50
2018-12-21T09:46:26.524Z,96206.44
2018-12-21T09:48:56.273Z,96207.59
2018-12-21T09:51:25.658Z,96203.52
2018-12-21T09:53:55.205Z,96194.73
2018-12-21T09:56:24.976Z,96194.95
2018-12-21T09:58:54.570Z,96188.00
2018-12-21T10:01:24.012Z,96187.40
2018-12-21T10:03:54.374Z,96188.88
2018-12-21T10:06:23.759Z,96187.92
2018-12-21T10:08:53.693Z,96185.19
2018-12-21T10:11:22.994Z,96190.89
2018-12-21T10:13:52.403Z,96190.94
2018-12-21T10:16:22.107Z,96179.49
2018-12-21T10:18:51.729Z,96182.13
2018-12-21T10:21:21.313Z,96183.41
2018-12-21T10:23:50.870Z,96188.89
2018-12-21T10:26:20.443Z,96199.73
2018-12-21T10:28:50.210Z,96196.70
2018-12-21T10:31:19.956Z,96182.72
2018-12-21T10:33:49.546Z,96178.70
2018-12-21T10:36:19.236Z,96183.34
2018-12-21T10:38:48.660Z,96182.37
2018-12-21T10:41:18.240Z,96175.23
2018-12-21T10:43:47.912Z,96159.83
2018-12-21T10:46:17.651Z,96166.38
2018-12-21T10:48:47.084Z,96169.98
2018-12-21T10:51:16.618Z,96163.53
2018-12-21T10:53:46.824Z,96161.03
2018-12-21T10:56:16.181Z,96157.52
2018-12-21T10:58:45.652Z,96152.97
2018-12-21T11:01:15.366Z,96150.56
2018-12-21T11:03:45.094Z,96152.09
2018-12-21T11:06:14.710Z,96136.64
2018-12-21T11:08:44.675Z,96136.58
2018-12-21T11:11:14.216Z,96136.70
2018-12-21T11:13:43.993Z,96133.12
2018-12-21T11:16:13.463Z,96132.64
2018-12-21T11:18:43.052Z,96120.34
2018-12-21T11:21:12.678Z,96123.98
2018-12-21T11:23:42.280Z,96122.95
2018-12-21T11:26:11.851Z,96113.80
2018-12-21T11:28:41.680Z,96118.34
2018-12-21T11:31:11.523Z,96119.37
2018-12-21T11:33:40.864Z,96123.91
2018-12-21T11:36:10.695Z,96123.47
2018-12-21T11:38:40.229Z,96113.88
2018-12-21T11:41:09.654Z,96110.13
2018-12-21T11:43:39.559Z,96109.53
2018-12-21T11:46:09.188Z,96110.54
2018-12-21T11:48:38.735Z,96104.64
2018-12-21T11:51:08.591Z,96107.41
2018-12-21T11:53:38.062Z,96095.42
2018-12-21T11:56:07.679Z,96092.94
2018-12-21T11:58:37.539Z,96088.28
2018-12-21T12:01:07.224Z,96093.19
2018-12-21T12:03:38.565Z,96096.53
2018-12-21T12:06:08.634Z,96084.75
2018-12-21T12:08:38.248Z,96085.56
2018-12-21T12:11:08.058Z,96082.30
2018-12-21T12:13:37.803Z,96096.91
2018-12-21T12:16:07.298Z,96088.32
2018-12-21T12:18:37.377Z,96089.92
2018-12-21T12:21:06.911Z,96090.70
2018-12-21T12:23:36.524Z,96091.52
2018-12-21T12:26:06.118Z,96096.38
2018-12-21T12:28:35.630Z,96082.38
2018-12-21T12:31:05.159Z,96077.26
2018-12-21T12:33:34.994Z,96068.83
2018-12-21T12:36:05.249Z,96073.06
2018-12-21T12:38:34.935Z,96073.03
2018-12-21T12:41:06.775Z,96063.70
2018-12-21T12:43:34.546Z,96069.80
2018-12-21T12:46:04.162Z,96064.73
2018-12-21T12:48:33.570Z,96069.33
2018-12-21T12:51:03.276Z,96067.28
2018-12-21T12:53:32.864Z,96069.84
2018-12-21T12:56:05.126Z,96057.28
2018-12-21T12:58:32.593Z,96070.50
2018-12-21T13:01:02.300Z,96074.34
2018-12-21T13:03:32.138Z,96092.14
2018-12-21T13:06:01.816Z,96089.04
2018-12-21T13:08:31.313Z,96093.14
2018-12-21T13:11:01.275Z,96097.93
2018-12-21T13:13:31.019Z,96098.27
2018-12-21T13:16:00.655Z,96090.06
2018-12-21T13:18:30.307Z,96086.78
2018-12-21T13:20:59.863Z,96080.41
2018-12-21T13:23:29.404Z,96093.80
2018-12-21T13:25:58.915Z,96095.08
2018-12-21T13:28:28.616Z,96087.55
2018-12-21T13:30:58.326Z,96079.89
2018-12-21T13:33:28.357Z,96074.38
2018-12-21T13:35:57.828Z,96072.17
2018-12-21T13:38:27.331Z,96080.38
2018-12-21T13:40:56.775Z,96085.18
2018-12-21T13:43:26.136Z,96076.40
2018-12-21T13:45:55.961Z,96090.64
2018-12-21T13:48:25.796Z,96091.30
2018-12-21T13:50:55.384Z,96071.05
2018-12-21T13:53:24.791Z,96069.79
2018-12-21T13:55:54.920Z,96067.56
2018-12-21T13:58:24.263Z,96067.22
2018-12-21T14:00:53.705Z,96065.91
2018-12-21T14:03:23.072Z,96068.05
2018-12-21T14:05:52.822Z,96066.09
2018-12-21T14:08:22.214Z,96062.59
2018-12-21T14:10:52.058Z,96057.14
2018-12-21T14:13:21.551Z,96058.08
2018-12-21T14:15:50.955Z,96053.53
2018-12-21T14:18:20.640Z,96060.27
2018-12-21T14:20:50.160Z,96071.48
2018-12-21T14:23:19.880Z,96072.58
2018-12-21T14:25:49.512Z,96078.50
2018-12-21T14:28:19.272Z,96084.95
2018-12-21T14:30:49.114Z,96084.02
2018-12-21T14:33:18.847Z,96079.27
2018-12-21T14:35:48.532Z,96090.31
2018-12-21T14:38:17.938Z,96093.78
2018-12-21T14:40:47.583Z,96096.81
2018-12-21T14:43:17.048Z,96101.44
2018-12-21T14:45:46.770Z,96101.72
2018-12-21T14:48:16.274Z,96106.19
2018-12-21T14:50:45.894Z,96103.15
2018-12-21T14:53:15.609Z,96099.23
2018-12-21T14:55:45.287Z,96099.77
2018-12-21T14:58:14.847Z,96095.87
2018-12-21T15:00:44.392Z,96093.56
2018-12-21T15:03:14.259Z,96098.39
2018-12-21T15:05:43.822Z,96097.16
2018-12-21T15:08:13.533Z,96098.39
2018-12-21T15:10:43.055Z,96103.78
2018-12-21T15:13:12.624Z,96109.70
2018-12-21T15:15:42.171Z,96104.31
2018-12-21T15:18:12.617Z,96100.98
2018-12-21T15:20:42.212Z,96096.66
2018-12-21T15:23:11.802Z,96103.53
2018-12-21T15:25:46.002Z,96101.44
2018-12-21T15:28:11.260Z,96099.83
2018-12-21T15:30:40.683Z,96092.96
2018-12-21T15:33:10.500Z,96105.13
2018-12-21T15:35:40.225Z,96108.98
2018-12-21T15:38:09.756Z,96108.16
2018-12-21T15:40:39.713Z,96113.30
2018-12-21T15:43:09.202Z,96115.65
2018-12-21T15:45:38.987Z,96116.91
2018-12-21T15:48:08.892Z,96112.20
2018-12-21T15:50:38.372Z,96105.59
2018-12-21T15:53:07.993Z,96116.09
2018-12-21T15:55:37.725Z,96104.83
2018-12-21T15:58:07.135Z,96102.70
2018-12-21T16:00:36.517Z,96095.44
2018-12-21T16:03:07.011Z,96095.92
2018-12-21T16:05:36.755Z,96093.61
2018-12-21T16:08:06.617Z,96087.22
2018-12-21T16:10:36.404Z,96081.48
2018-12-21T16:13:05.917Z,96090.37
2018-12-21T16:15:35.477Z,96080.95
2018-12-21T16:18:05.160Z,96083.77
2018-12-21T16:20:34.745Z,96093.98
2018-12-21T16:23:04.293Z,96090.19
2018-12-21T16:25:34.158Z,96097.48
2018-12-21T16:28:03.714Z,96106.23
2018-12-21T16:30:33.480Z,96102.33
2018-12-21T16:33:03.179Z,96106.70
2018-12-21T16:35:32.582Z,96121.95
2018-12-21T16:38:02.477Z,96122.43
2018-12-21T16:40:31.886Z,96120.02
2018-12-21T16:43:01.415Z,96098.41
2018-12-21T16:45:31.037Z,96124.33
2018-12-21T16:48:00.650Z,96123.60
2018-12-21T16:50:31.088Z,96125.41
2018-12-21T16:53:00.632Z,96113.73
2018-12-21T16:55:30.208Z,96124.42
2018-12-21T16:58:00.017Z,96118.50
2018-12-21T17:00:29.480Z,96126.90
2018-12-21T17:02:59.137Z,96122.78
2018-12-21T17:05:28.756Z,96118.19
2018-12-21T17:07:58.440Z,96116.67
2018-12-21T17:10:28.017Z,96114.06
2018-12-21T17:12:57.882Z,96109.62
2018-12-21T17:15:27.415Z,96108.31
2018-12-21T17:17:57.165Z,96098.73
2018-12-21T17:20:26.895Z,96102.46
2018-12-21T17:22:56.466Z,96102.34
2018-12-21T17:25:28.204Z,96111.98
2018-12-21T17:27:57.852Z,96101.06
2018-12-21T17:30:27.467Z,96103.65
2018-12-21T17:32:57.196Z,96105.84
2018-12-21T17:35:26.641Z,96095.16
2018-12-21T17:37:56.316Z,96093.50
2018-12-21T17:40:26.039Z,96107.04
2018-12-21T17:42:55.505Z,96090.23
2018-12-21T17:45:24.927Z,96084.85
2018-12-21T17:47:54.724Z,96082.28
2018-12-21T17:50:24.129Z,96094.64
2018-12-21T17:52:53.833Z,96096.36
2018-12-21T17:55:23.524Z,96093.65
2018-12-21T17:57:53.046Z,96074.87
2018-12-21T18:00:22.584Z,96097.08
2018-12-21T18:02:55.744Z,96089.54
2018-12-21T18:05:27.510Z,96092.66
2018-12-21T18:07:58.062Z,96097.08
2018-12-21T18:10:27.777Z,96095.82
2018-12-21T18:12:57.301Z,96097.86
2018-12-21T18:15:28.194Z,96090.23
2018-12-21T18:17:57.719Z,96085.49
2018-12-21T18:20:27.503Z,96083.48
2018-12-21T18:22:57.184Z,96076.78
2018-12-21T18:25:29.134Z,96079.55
2018-12-21T18:28:01.386Z,96070.81
2018-12-21T18:30:35.388Z,96073.31
2018-12-21T18:33:10.881Z,96068.13
2018-12-21T18:35:36.301Z,96068.73
2018-12-21T18:38:09.170Z,96068.39
2018-12-21T18:40:38.872Z,96073.02
2018-12-21T18:43:08.722Z,96071.97
2018-12-21T18:45:38.439Z,96077.44
2018-12-21T18:48:08.252Z,96071.58
2018-12-21T18:50:37.887Z,96075.78
2018-12-21T18:53:07.601Z,96075.36
2018-12-21T18:55:37.543Z,96068.28
2018-12-21T18:58:07.087Z,96071.13
2018-12-21T19:00:36.482Z,96068.73
2018-12-21T19:03:06.398Z,96067.67
2018-12-21T19:05:36.151Z,96066.45
2018-12-21T19:08:05.846Z,96073.02
2018-12-21T19:10:35.464Z,96067.84
2018-12-21T19:13:05.086Z,96071.67
2018-12-21T19:15:34.641Z,96051.81
2018-12-21T19:18:04.567Z,96047.12
2018-12-21T19:20:34.184Z,96055.34
2018-12-21T19:23:03.911Z,96044.45
2018-12-21T19:25:33.744Z,96049.16
2018-12-21T19:28:03.243Z,96046.45
2018-12-21T19:30:32.935Z,96039.88
2018-12-21T19:33:02.772Z,96040.23
2018-12-21T19:35:32.327Z,96035.83
2018-12-21T19:38:01.912Z,96036.72
2018-12-21T19:40:31.553Z,96028.40
2018-12-21T19:43:01.397Z,96034.76
2018-12-21T19:45:30.850Z,96036.92
2018-12-21T19:48:00.597Z,96032.87
2018-12-21T19:50:30.679Z,96031.94
2018-12-21T19:53:02.471Z,96027.75
2018-12-21T19:55:39.267Z,96034.14
2018-12-21T19:58:08.837Z,96028.69
2018-12-21T20:00:38.315Z,96030.22
2018-12-21T20:03:08.134Z,96025.47
2018-12-21T20:05:37.772Z,96016.64
2018-12-21T20:08:07.345Z,96017.56
2018-12-21T20:10:37.023Z,96015.75
2018-12-21T20:13:06.790Z,96007.94
2018-12-21T20:15:36.621Z,96016.89
2018-12-21T20:18:06.579Z,96003.45
2018-12-21T20:20:36.147Z,96002.33
2018-12-21T20:23:05.747Z,96001.75
2018-12-21T20:25:35.549Z,96004.31
2018-12-21T20:28:05.496Z,96005.81
2018-12-21T20:30:35.286Z,96012.77
2018-12-21T20:33:05.188Z,96004.42
2018-12-21T20:35:34.744Z,96004.95
2018-12-21T20:38:04.617Z,96008.80
2018-12-21T20:40:34.357Z,96000.73
2018-12-21T20:43:04.147Z,96002.81
2018-12-21T20:45:34.599Z,95999.17
2018-12-21T20:48:04.379Z,95994.33
2018-12-21T20:50:33.856Z,96003.00
2018-12-21T20:53:04.473Z,95991.78
2018-12-21T20:55:34.288Z,95984.00
2018-12-21T20:58:11.256Z,95988.66
2018-12-21T21:00:41.951Z,95984.15
2018-12-21T21:03:11.767Z,95982.69
2018-12-21T21:05:41.490Z,95986.69
2018-12-21T21:08:11.319Z,95984.45
2018-12-21T21:10:41.004Z,95976.08
2018-12-21T21:13:19.007Z,95972.27
2018-12-21T21:15:40.302Z,95973.69
2018-12-21T21:18:09.920Z,95962.48
2018-12-21T21:20:39.332Z,95969.84
2018-12-21T21:23:09.208Z,95971.89
2018-12-21T21:25:38.736Z,95970.39
2018-12-21T21:28:08.265Z,95975.92
2018-12-21T21:30:39.400Z,95961.78
2018-12-21T21:33:08.852Z,95961.18
2018-12-21T21:35:38.396Z,95954.18
2018-12-21T21:38:08.261Z,95957.34
2018-12-21T21:40:39.159Z,95964.82
2018-12-21T21:43:12.055Z,95964.95
2018-12-21T21:45:41.761Z,95966.62
2018-12-21T21:48:11.575Z,95964.41
2018-12-21T21:50:41.473Z,95963.67
2018-12-21T21:53:11.219Z,95965.17
2018-12-21T21:55:40.915Z,95963.95
2018-12-21T21:58:10.842Z,95965.26
2018-12-21T22:00:41.147Z,95963.24
2018-12-21T22:03:10.626Z,95965.69
2018-12-21T22:05:40.696Z,95956.91
2018-12-21T22:08:10.279Z,95963.77
2018-12-21T22:10:39.875Z,95951.55
2018-12-21T22:13:09.634Z,95955.38
2018-12-21T22:15:39.177Z,95945.16
2018-12-21T22:18:08.743Z,95951.41
2018-12-21T22:20:38.216Z,95942.06
2018-12-21T22:23:07.651Z,95944.97
2018-12-21T22:25:37.465Z,95956.93
2018-12-21T22:28:07.341Z,95953.83
2018-12-21T22:30:36.956Z,95956.52
2018-12-21T22:33:06.589Z,95954.98
2018-12-21T22:35:36.376Z,95956.16
2018-12-21T22:38:05.984Z,95943.40
2018-12-21T22:40:35.568Z,95940.13
2018-12-21T22:43:05.481Z,95940.25
2018-12-21T22:45:35.227Z,95946.64
2018-12-21T22:48:04.623Z,95945.64
2018-12-21T22:50:34.266Z,95934.81
2018-12-21T22:53:03.822Z,95936.91
2018-12-21T22:55:33.455Z,95939.05
2018-12-21T22:58:03.348Z,95937.03
2018-12-21T23:00:36.550Z,95925.98
2018-12-21T23:03:06.028Z,95931.91
2018-12-21T23:05:35.767Z,95931.42
2018-12-21T23:08:05.484Z,95935.89
2018-12-21T23:10:35.213Z,95933.20
2018-12-21T23:13:04.904Z,95932.23
2018-12-21T23:15:34.604Z,95927.27
2018-12-21T23:18:04.561Z,95921.63
2018-12-21T23:20:34.030Z,95905.32
2018-12-21T23:23:03.510Z,95905.67
2018-12-21T23:25:33.395Z,95888.26
2018-12-21T23:28:05.251Z,95879.98
2018-12-21T23:30:32.779Z,95881.98
2018-12-21T23:33:02.684Z,95872.05
2018-12-21T23:35:32.428Z,95871.26
2018-12-21T23:38:02.342Z,95871.47
2018-12-21T23:40:31.924Z,95887.97
2018-12-21T23:43:01.536Z,95885.54
2018-12-21T23:45:31.467Z,95892.89
2018-12-21T23:48:01.165Z,95890.97
2018-12-21T23:50:30.867Z,95881.09
2018-12-21T23:53:00.830Z,95882.61
2018-12-21T23:55:30.386Z,95895.67
2018-12-21T23:57:59.999Z,95893.97
